createdAt,value
2023-01-21T00:01:28.083Z,28.60
2023-01-21T00:03:55.876Z,28.90
2023-01-21T00:06:23.314Z,28.30
2023-01-21T00:08:50.822Z,29.30
2023-01-21T00:11:18.892Z,31.00
2023-01-21T00:13:46.629Z,30.00
2023-01-21T00:16:15.388Z,31.00
2023-01-21T00:18:43.169Z,29.00
2023-01-21T00:21:10.780Z,27.60
2023-01-21T00:23:38.395Z,29.40
2023-01-21T00:26:07.223Z,31.60
2023-01-21T00:28:35.731Z,28.60
2023-01-21T00:31:05.092Z,30.80
2023-01-21T00:33:32.992Z,31.60
2023-01-21T00:36:30.028Z,32.30
2023-01-21T00:38:57.850Z,30.60
2023-01-21T00:41:25.714Z,30.80
2023-01-21T00:43:53.500Z,29.90
2023-01-21T00:46:21.147Z,29.70
2023-01-21T00:48:48.749Z,30.40
2023-01-21T00:51:16.388Z,30.10
2023-01-21T00:53:44.054Z,30.60
2023-01-21T00:56:12.755Z,30.50
2023-01-21T00:58:40.772Z,28.20
2023-01-21T01:01:10.375Z,28.50
2023-01-21T01:03:38.197Z,27.50
2023-01-21T01:06:10.686Z,28.20
2023-01-21T01:08:38.403Z,28.30
2023-01-21T01:11:06.332Z,27.00
2023-01-21T01:13:34.868Z,26.20
2023-01-21T01:16:03.130Z,28.50
2023-01-21T01:18:32.963Z,26.50
2023-01-21T01:21:00.510Z,28.20
2023-01-21T01:23:28.222Z,28.40
2023-01-21T01:26:06.814Z,28.00
2023-01-21T01:28:34.750Z,28.30
2023-01-21T01:31:04.950Z,24.60
2023-01-21T01:33:32.753Z,29.30
2023-01-21T01:36:08.693Z,29.50
2023-01-21T01:38:36.308Z,27.00
2023-01-21T01:41:03.902Z,28.20
2023-01-21T01:44:06.135Z,26.40
2023-01-21T01:46:36.587Z,27.00
2023-01-21T01:49:16.496Z,26.90
2023-01-21T01:51:47.277Z,25.70
2023-01-21T01:54:17.688Z,25.60
2023-01-21T01:56:46.611Z,27.20
2023-01-21T01:59:14.160Z,25.50
2023-01-21T02:01:41.882Z,24.90
2023-01-21T02:04:12.849Z,24.90
2023-01-21T02:06:40.428Z,25.20
2023-01-21T02:09:08.747Z,24.10
2023-01-21T02:11:36.882Z,25.10
2023-01-21T02:14:04.424Z,28.50
2023-01-21T02:16:35.300Z,28.10
2023-01-21T02:21:50.832Z,23.50
2023-01-21T02:24:36.832Z,24.30
2023-01-21T02:27:30.713Z,22.90
2023-01-21T02:30:20.357Z,22.90
2023-01-21T02:33:07.531Z,23.30
2023-01-21T02:35:57.634Z,22.50
2023-01-21T02:38:36.431Z,24.10
2023-01-21T02:41:12.431Z,23.00
2023-01-21T02:43:58.074Z,21.80
2023-01-21T02:46:40.910Z,23.20
2023-01-21T02:49:47.132Z,22.70
2023-01-21T02:52:19.172Z,22.50
2023-01-21T02:55:00.927Z,21.80
2023-01-21T02:57:36.910Z,21.20
2023-01-21T03:00:12.308Z,22.30
2023-01-21T03:03:14.767Z,20.20
2023-01-21T03:05:55.567Z,21.20
2023-01-21T03:08:25.449Z,21.50
2023-01-21T03:11:17.000Z,21.00
2023-01-21T03:14:36.221Z,21.20
2023-01-21T03:17:35.030Z,19.60
2023-01-21T03:20:39.313Z,20.90
2023-01-21T03:23:10.031Z,20.00
2023-01-21T03:25:38.240Z,20.10
2023-01-21T03:28:08.389Z,18.70
2023-01-21T03:30:36.014Z,21.50
2023-01-21T03:33:03.658Z,20.20
2023-01-21T03:35:36.964Z,20.10
2023-01-21T03:38:26.233Z,20.80
2023-01-21T03:41:15.168Z,19.90
2023-01-21T03:43:42.830Z,19.20
2023-01-21T03:46:35.125Z,18.60
2023-01-21T03:49:34.385Z,18.50
2023-01-21T03:52:02.082Z,19.40
2023-01-21T03:54:29.584Z,17.50
2023-01-21T03:56:57.148Z,19.50
2023-01-21T03:59:24.661Z,18.40
2023-01-21T04:01:52.208Z,19.30
2023-01-21T04:04:19.775Z,18.50
2023-01-21T04:06:47.365Z,19.00
2023-01-21T04:09:15.016Z,19.60
2023-01-21T04:11:42.569Z,19.00
2023-01-21T04:14:10.085Z,19.90
2023-01-21T04:16:37.765Z,20.30
2023-01-21T04:19:05.746Z,16.70
2023-01-21T04:21:33.448Z,18.70
2023-01-21T04:24:01.162Z,18.00
2023-01-21T04:26:28.675Z,19.00
2023-01-21T04:28:56.269Z,16.60
2023-01-21T04:31:23.984Z,17.60
2023-01-21T04:33:51.632Z,17.50
2023-01-21T04:36:19.489Z,17.30
2023-01-21T04:38:46.983Z,16.60
2023-01-21T04:41:14.584Z,17.50
2023-01-21T04:43:42.112Z,17.30
2023-01-21T04:46:09.625Z,18.50
2023-01-21T04:48:37.648Z,18.60
2023-01-21T04:51:06.816Z,17.10
2023-01-21T04:53:34.447Z,17.00
2023-01-21T04:56:02.350Z,17.30
2023-01-21T04:58:30.036Z,17.40
2023-01-21T05:00:57.660Z,16.80
2023-01-21T05:03:25.346Z,16.90
2023-01-21T05:05:52.893Z,17.00
2023-01-21T05:08:20.605Z,19.20
2023-01-21T05:10:48.426Z,17.70
2023-01-21T05:13:16.055Z,16.20
2023-01-21T05:15:43.643Z,17.10
2023-01-21T05:18:11.367Z,18.70
2023-01-21T05:20:38.943Z,17.30
2023-01-21T05:23:06.733Z,16.10
2023-01-21T05:25:34.402Z,16.80
2023-01-21T05:28:02.685Z,18.40
2023-01-21T05:30:30.488Z,15.20
2023-01-21T05:32:58.113Z,17.10
2023-01-21T05:35:25.757Z,16.60
2023-01-21T05:37:53.445Z,15.40
2023-01-21T05:40:21.230Z,15.80
2023-01-21T05:42:48.949Z,15.30
2023-01-21T05:45:16.679Z,17.50
2023-01-21T05:47:44.341Z,16.40
2023-01-21T05:50:12.474Z,17.50
2023-01-21T05:52:40.578Z,17.00
2023-01-21T05:55:09.781Z,17.40
2023-01-21T05:57:37.656Z,15.80
2023-01-21T06:00:06.585Z,17.00
2023-01-21T06:02:35.331Z,15.60
2023-01-21T06:05:03.221Z,16.70
2023-01-21T06:07:30.852Z,17.30
2023-01-21T06:09:58.739Z,15.90
2023-01-21T06:12:26.867Z,16.20
2023-01-21T06:14:54.548Z,17.10
2023-01-21T06:17:23.594Z,17.00
2023-01-21T06:19:51.120Z,15.80
2023-01-21T06:22:19.370Z,16.60
2023-01-21T06:24:48.056Z,16.80
2023-01-21T06:27:16.056Z,15.70
2023-01-21T06:29:46.943Z,17.10
2023-01-21T06:32:18.131Z,15.30
2023-01-21T06:34:46.719Z,15.30
2023-01-21T06:37:15.399Z,17.00
2023-01-21T06:39:43.433Z,18.00
2023-01-21T06:42:11.233Z,16.10
2023-01-21T06:44:38.805Z,17.30
2023-01-21T06:47:06.843Z,16.50
2023-01-21T06:49:34.714Z,15.40
2023-01-21T06:52:02.723Z,16.30
2023-01-21T06:54:30.949Z,17.40
2023-01-21T06:56:59.134Z,14.90
2023-01-21T06:59:27.291Z,15.80
2023-01-21T07:01:55.999Z,16.30
2023-01-21T07:04:24.009Z,15.80
2023-01-21T07:06:52.085Z,15.80
2023-01-21T07:09:20.598Z,15.40
2023-01-21T07:11:49.846Z,15.30
2023-01-21T07:14:18.385Z,15.10
2023-01-21T07:16:46.989Z,16.00
2023-01-21T07:19:15.772Z,16.30
2023-01-21T07:21:44.053Z,14.70
2023-01-21T07:24:12.723Z,15.80
2023-01-21T07:26:42.119Z,17.50
2023-01-21T07:29:10.800Z,16.90
2023-01-21T07:31:39.420Z,14.00
2023-01-21T07:34:07.602Z,15.80
2023-01-21T07:36:35.733Z,15.40
2023-01-21T07:39:04.126Z,16.70
2023-01-21T07:41:32.492Z,16.60
2023-01-21T07:44:00.876Z,15.60
2023-01-21T07:46:28.653Z,16.60
2023-01-21T07:48:57.837Z,14.40
2023-01-21T07:51:26.240Z,16.40
2023-01-21T07:53:56.814Z,14.70
2023-01-21T07:56:27.044Z,15.20
2023-01-21T07:58:55.735Z,16.50
2023-01-21T08:01:27.432Z,15.60
2023-01-21T08:03:55.053Z,17.50
2023-01-21T08:06:22.914Z,15.50
2023-01-21T08:08:50.983Z,18.30
2023-01-21T08:11:18.846Z,15.80
2023-01-21T08:13:47.435Z,16.50
2023-01-21T08:16:15.697Z,17.90
2023-01-21T11:59:19.251Z,22.70
2023-01-21T12:02:04.504Z,22.00
2023-01-21T12:04:32.000Z,22.80
2023-01-21T12:07:00.245Z,20.30
2023-01-21T12:09:28.148Z,23.10
2023-01-21T12:12:31.442Z,20.70
2023-01-21T12:14:59.029Z,20.00
2023-01-21T12:17:51.848Z,21.20
2023-01-21T12:20:47.438Z,22.40
2023-01-21T12:23:39.403Z,22.00
2023-01-21T12:26:39.068Z,21.40
2023-01-21T12:29:38.345Z,19.60
2023-01-21T12:32:11.676Z,20.80
2023-01-21T12:35:10.652Z,19.60
2023-01-21T12:37:47.971Z,19.90
2023-01-21T12:40:32.081Z,19.20
2023-01-21T12:43:16.450Z,18.90
2023-01-21T12:45:51.769Z,19.50
2023-01-21T12:48:42.417Z,19.30
2023-01-21T12:51:12.085Z,14.20
2023-01-21T12:53:54.209Z,18.90
2023-01-21T12:56:43.473Z,18.90
2023-01-21T12:59:23.491Z,18.60
2023-01-21T13:02:20.516Z,20.80
2023-01-21T13:05:01.584Z,19.40
2023-01-21T13:08:14.501Z,16.60
2023-01-21T13:10:45.290Z,18.00
2023-01-21T13:13:51.325Z,18.60
2023-01-21T13:16:18.725Z,17.30
2023-01-21T13:18:52.956Z,18.10
2023-01-21T13:21:36.223Z,18.10
2023-01-21T13:24:16.852Z,17.30
2023-01-21T13:26:51.010Z,16.90
2023-01-21T13:29:31.741Z,17.60
2023-01-21T13:32:10.758Z,16.00
2023-01-21T13:34:57.429Z,16.10
2023-01-21T13:37:37.078Z,15.20
2023-01-21T13:40:35.423Z,14.60
2023-01-21T13:43:24.436Z,14.80
2023-01-21T13:46:00.309Z,15.70
2023-01-21T13:49:03.428Z,12.90
2023-01-21T13:51:42.675Z,13.50
2023-01-21T13:54:48.067Z,13.00
2023-01-21T13:57:43.439Z,13.50
2023-01-21T14:00:19.841Z,13.30
2023-01-21T14:02:53.961Z,13.80
2023-01-21T14:05:30.238Z,14.50
2023-01-21T14:08:12.280Z,14.10
2023-01-21T14:10:44.202Z,14.10
2023-01-21T14:13:18.318Z,16.50
2023-01-21T14:15:51.699Z,16.40
2023-01-21T14:18:22.038Z,14.30
2023-01-21T14:21:15.122Z,15.40
2023-01-21T14:24:07.378Z,18.20
2023-01-21T14:26:42.857Z,16.10
2023-01-21T14:29:46.346Z,16.20
2023-01-21T14:32:41.214Z,16.70
2023-01-21T14:35:13.719Z,14.70
2023-01-21T14:37:44.285Z,14.90
2023-01-21T14:40:32.313Z,15.30
2023-01-21T14:42:59.789Z,17.10
2023-01-21T14:45:49.379Z,16.70
2023-01-21T14:48:33.915Z,22.10
2023-01-21T14:51:07.736Z,17.80
2023-01-21T14:53:49.889Z,17.60
2023-01-21T14:56:26.899Z,17.60
2023-01-21T14:59:09.523Z,16.90
2023-01-21T15:01:41.816Z,15.40
2023-01-21T15:04:29.920Z,16.80
2023-01-21T15:07:13.620Z,15.50
2023-01-21T15:09:43.317Z,17.90
2023-01-21T15:12:17.482Z,20.30
2023-01-21T15:14:46.320Z,18.10
2023-01-21T15:17:51.609Z,17.80
2023-01-21T15:20:51.759Z,18.10
2023-01-21T15:23:31.680Z,15.30
2023-01-21T15:26:11.999Z,15.90
2023-01-21T15:28:48.899Z,15.30
2023-01-21T15:31:25.355Z,14.90
2023-01-21T15:33:59.026Z,17.80
2023-01-21T15:36:32.579Z,19.60
2023-01-21T15:39:23.559Z,15.20
2023-01-21T15:42:20.919Z,14.10
2023-01-21T15:45:07.267Z,14.50
2023-01-21T15:48:04.459Z,13.40
2023-01-21T15:50:41.839Z,16.10
2023-01-21T15:53:21.769Z,14.10
2023-01-21T15:55:54.151Z,14.20
2023-01-21T15:59:00.668Z,14.20
2023-01-21T16:01:38.500Z,15.50
2023-01-21T16:04:19.546Z,14.30
2023-01-21T16:06:54.338Z,14.20
2023-01-21T19:51:47.791Z,24.50
2023-01-21T19:54:15.941Z,24.30
2023-01-21T19:56:43.334Z,22.70
2023-01-21T19:59:13.236Z,24.80
2023-01-21T20:01:49.852Z,23.30
2023-01-21T20:04:19.550Z,21.80
2023-01-21T20:06:49.833Z,21.90
2023-01-21T20:09:20.022Z,25.90
2023-01-21T20:11:47.598Z,27.10
2023-01-21T20:14:15.728Z,25.20
2023-01-21T20:16:45.575Z,25.50
2023-01-21T20:19:14.363Z,26.30
2023-01-21T20:21:59.685Z,28.30
2023-01-21T20:24:29.891Z,28.60
2023-01-21T20:26:58.415Z,26.80
2023-01-21T20:29:28.656Z,25.30
2023-01-21T20:31:56.564Z,28.40
2023-01-21T20:34:26.361Z,30.10
2023-01-21T20:36:54.685Z,19.30
2023-01-21T20:39:22.416Z,23.20
2023-01-21T20:41:49.993Z,22.00
2023-01-21T20:44:18.542Z,21.10
2023-01-21T20:46:47.814Z,22.00
2023-01-21T20:49:15.428Z,23.30
2023-01-21T20:51:43.869Z,23.10
2023-01-21T20:54:12.088Z,23.30
2023-01-21T20:56:40.292Z,23.30
2023-01-21T20:59:08.939Z,23.70
2023-01-21T21:01:39.170Z,22.50
2023-01-21T21:04:06.630Z,23.00
2023-01-21T21:06:34.913Z,22.40
2023-01-21T21:09:02.627Z,23.60
2023-01-21T21:11:30.922Z,24.60
2023-01-21T21:14:01.559Z,24.60
2023-01-21T21:16:31.656Z,25.00
2023-01-21T21:19:01.331Z,22.60
2023-01-21T21:21:29.282Z,22.70
2023-01-21T21:23:56.957Z,23.50
2023-01-21T21:26:27.100Z,23.50
2023-01-21T21:28:55.222Z,24.40
2023-01-21T21:31:23.421Z,26.50
2023-01-21T21:33:51.152Z,25.40
2023-01-21T21:36:19.930Z,26.20
2023-01-21T21:38:49.022Z,25.90
2023-01-21T21:41:36.288Z,24.70
2023-01-21T21:44:07.842Z,24.90
2023-01-21T21:46:55.495Z,26.70
2023-01-21T21:49:23.744Z,26.60
2023-01-21T21:51:51.401Z,25.40
2023-01-21T21:54:20.789Z,24.90
2023-01-21T21:56:48.195Z,25.60
2023-01-21T21:59:17.360Z,24.10
2023-01-21T22:01:47.483Z,26.60
2023-01-21T22:04:15.397Z,25.10
2023-01-21T22:06:42.947Z,24.90
2023-01-21T22:09:11.426Z,26.30
2023-01-21T22:11:39.238Z,25.30
2023-01-21T22:14:07.588Z,24.00
2023-01-21T22:16:35.045Z,25.00
2023-01-21T22:19:02.631Z,26.70
2023-01-21T22:21:32.489Z,27.80
2023-01-21T22:24:03.612Z,27.50
2023-01-21T22:26:32.009Z,27.50
2023-01-21T22:28:59.479Z,29.00
2023-01-21T22:31:31.972Z,29.20
2023-01-21T22:34:00.018Z,27.00
2023-01-21T22:36:29.201Z,27.80
2023-01-21T22:38:57.183Z,28.90
2023-01-21T22:41:25.741Z,30.30
2023-01-21T22:43:53.608Z,28.80
2023-01-21T22:46:30.296Z,29.60
2023-01-21T22:48:58.457Z,28.20
2023-01-21T22:51:26.361Z,27.60
2023-01-21T22:53:53.949Z,28.10
2023-01-21T22:56:39.855Z,28.50
2023-01-21T22:59:11.550Z,28.40
2023-01-21T23:01:41.067Z,27.80
2023-01-21T23:04:08.513Z,27.80
2023-01-21T23:06:37.655Z,28.10
2023-01-21T23:09:06.749Z,30.00
2023-01-21T23:11:36.918Z,29.80
2023-01-21T23:14:04.160Z,31.10
2023-01-21T23:16:31.387Z,28.60
2023-01-21T23:18:58.745Z,27.00
2023-01-21T23:21:26.468Z,27.20
2023-01-21T23:23:54.038Z,27.00
2023-01-21T23:26:22.373Z,27.30
2023-01-21T23:28:53.570Z,30.10
2023-01-21T23:31:23.310Z,26.90
2023-01-21T23:33:51.724Z,28.40
2023-01-21T23:36:19.553Z,27.10
2023-01-21T23:38:48.563Z,27.40
2023-01-21T23:41:16.546Z,29.30
2023-01-21T23:43:43.788Z,27.10
2023-01-21T23:46:14.148Z,28.50
2023-01-21T23:48:42.018Z,25.80
